createdAt,value
2023-02-15T04:48:20.015Z,6.47
2023-02-15T04:50:47.097Z,7.25
2023-02-15T04:53:17.580Z,5.53
2023-02-15T04:55:44.806Z,5.60
2023-02-15T04:58:11.435Z,6.07
2023-02-15T05:00:39.786Z,6.95
2023-02-15T05:03:08.136Z,7.15
2023-02-15T05:05:34.771Z,6.20
2023-02-15T05:08:01.852Z,5.75
2023-02-15T05:10:28.747Z,5.78
2023-02-15T05:12:55.495Z,5.68
2023-02-15T05:15:22.840Z,5.47
2023-02-15T05:17:49.941Z,6.10
2023-02-15T05:20:17.592Z,5.50
2023-02-15T05:22:44.193Z,5.90
2023-02-15T05:25:29.723Z,5.88
2023-02-15T05:28:15.242Z,5.40
2023-02-15T05:30:42.116Z,5.25
2023-02-15T05:33:08.990Z,5.80
2023-02-15T05:35:35.850Z,6.35
2023-02-15T05:38:02.906Z,5.93
2023-02-15T05:40:29.878Z,5.78
2023-02-15T05:42:57.444Z,5.60
2023-02-15T05:45:24.479Z,5.03
2023-02-15T05:47:51.189Z,5.93
2023-02-15T05:50:18.146Z,5.38
2023-02-15T05:52:45.021Z,6.18
2023-02-15T05:55:13.197Z,5.20
2023-02-15T05:57:40.722Z,5.60
2023-02-15T06:00:08.245Z,5.57
2023-02-15T06:02:40.915Z,5.88
2023-02-15T06:05:09.100Z,6.20
2023-02-15T06:07:37.775Z,5.80
2023-02-15T06:10:06.019Z,5.30
2023-02-15T06:12:33.255Z,5.20
2023-02-15T06:15:00.535Z,5.85
2023-02-15T06:17:27.916Z,5.68
2023-02-15T06:19:54.746Z,5.35
2023-02-15T06:22:21.421Z,6.00
2023-02-15T06:24:48.807Z,5.40
2023-02-15T06:27:16.536Z,5.15
2023-02-15T06:29:43.843Z,5.50
2023-02-15T06:32:11.182Z,5.80
2023-02-15T06:34:37.794Z,6.38
2023-02-15T06:37:04.433Z,6.35
2023-02-15T06:39:31.712Z,5.40
2023-02-15T06:41:59.080Z,5.78
2023-02-15T06:44:26.803Z,5.90
2023-02-15T06:46:53.470Z,5.38
2023-02-15T06:49:21.395Z,4.57
2023-02-15T06:51:48.742Z,5.85
2023-02-15T06:54:15.969Z,6.10
2023-02-15T06:56:44.656Z,5.55
2023-02-15T06:59:11.351Z,5.50
2023-02-15T07:01:39.071Z,6.00
2023-02-15T07:04:07.518Z,7.40
2023-02-15T07:06:34.630Z,5.30
2023-02-15T07:09:02.931Z,5.80
2023-02-15T07:11:48.808Z,5.00
2023-02-15T07:14:15.528Z,5.18
2023-02-15T07:16:42.409Z,5.03
2023-02-15T07:19:09.487Z,6.07
2023-02-15T07:21:36.720Z,6.40
2023-02-15T07:24:03.851Z,5.35
2023-02-15T07:26:32.604Z,4.97
2023-02-15T07:28:59.710Z,5.47
2023-02-15T07:31:26.717Z,5.85
2023-02-15T07:33:54.110Z,5.80
2023-02-15T07:36:21.182Z,5.03
2023-02-15T07:38:48.483Z,5.97
2023-02-15T07:41:15.999Z,4.63
2023-02-15T07:43:43.832Z,4.95
2023-02-15T07:46:13.083Z,5.68
2023-02-15T07:48:40.541Z,5.38
2023-02-15T07:51:07.984Z,6.15
2023-02-15T07:53:34.709Z,4.95
2023-02-15T07:56:05.469Z,5.32
2023-02-15T07:58:51.249Z,5.50
2023-02-15T08:01:37.260Z,4.88
2023-02-15T08:04:05.574Z,6.03
2023-02-15T08:06:34.704Z,5.97
2023-02-15T08:09:12.820Z,5.30
2023-02-15T08:11:42.803Z,5.22
2023-02-15T08:14:14.235Z,4.97
2023-02-15T08:16:50.842Z,4.43
2023-02-15T08:19:21.650Z,4.88
2023-02-15T08:21:53.193Z,5.18
2023-02-15T08:24:24.385Z,5.20
2023-02-15T08:26:51.473Z,5.07
2023-02-15T08:29:20.270Z,5.00
2023-02-15T08:31:47.732Z,4.55
2023-02-15T08:34:16.443Z,4.95
2023-02-15T08:36:46.170Z,4.63
2023-02-15T08:39:14.122Z,4.82
2023-02-15T08:41:44.370Z,6.03
2023-02-15T08:44:11.839Z,5.57
2023-02-15T08:46:40.285Z,4.93
2023-02-15T08:49:06.980Z,4.97
2023-02-15T08:51:36.268Z,4.75
2023-02-15T08:54:08.097Z,5.30
2023-02-15T08:56:37.073Z,5.22
2023-02-15T08:59:04.388Z,4.97
2023-02-15T09:01:32.803Z,5.57
2023-02-15T09:04:09.909Z,4.82
2023-02-15T09:06:38.336Z,5.20
2023-02-15T09:09:06.028Z,7.53
2023-02-15T09:11:36.532Z,6.55
2023-02-15T09:14:05.711Z,5.00
2023-02-15T09:16:35.457Z,5.35
2023-02-15T09:19:02.554Z,6.32
2023-02-15T09:21:30.088Z,8.63
2023-02-15T09:24:01.234Z,6.28
2023-02-15T09:26:29.993Z,4.65
2023-02-15T09:28:58.303Z,4.93
2023-02-15T09:31:32.750Z,6.55
2023-02-15T09:34:00.099Z,5.18
2023-02-15T09:36:28.516Z,5.75
2023-02-15T09:38:56.397Z,6.47
2023-02-15T09:41:36.719Z,4.85
2023-02-15T09:44:18.439Z,5.25
2023-02-15T09:47:17.330Z,5.68
2023-02-15T09:50:13.989Z,4.55
2023-02-15T09:52:49.247Z,5.93
2023-02-15T09:55:38.847Z,6.35
2023-02-15T09:58:06.357Z,4.55
2023-02-15T10:00:51.175Z,5.93
2023-02-15T10:03:40.041Z,5.72
2023-02-15T10:06:25.225Z,4.50
2023-02-15T10:09:04.033Z,5.32
2023-02-15T10:11:42.567Z,5.07
2023-02-15T10:14:44.246Z,5.85
2023-02-15T10:17:19.986Z,5.40
2023-02-15T10:20:19.145Z,4.97
2023-02-15T10:23:11.692Z,5.53
2023-02-15T10:25:53.790Z,5.35
2023-02-15T10:28:27.565Z,4.90
2023-02-15T10:31:37.578Z,4.90
2023-02-15T10:34:11.595Z,5.20
2023-02-15T10:37:06.865Z,4.85
2023-02-15T10:39:55.326Z,4.88
2023-02-15T10:42:29.559Z,4.88
2023-02-15T10:45:14.629Z,4.95
2023-02-15T10:48:05.950Z,4.60
2023-02-15T10:50:45.510Z,5.35
2023-02-15T10:53:30.703Z,4.85
2023-02-15T10:56:04.516Z,4.95
2023-02-15T10:58:52.890Z,5.10
2023-02-15T11:01:25.277Z,5.10
2023-02-15T11:04:11.063Z,7.20
2023-02-15T11:06:40.635Z,6.03
2023-02-15T11:09:12.778Z,4.55
2023-02-15T11:11:43.372Z,7.55
2023-02-15T11:14:38.560Z,6.00
2023-02-15T11:17:23.152Z,6.50
2023-02-15T11:20:19.264Z,8.35
2023-02-15T11:22:49.457Z,9.40
2023-02-15T11:25:29.754Z,6.90
2023-02-15T11:27:57.128Z,6.90
2023-02-15T11:30:27.044Z,11.68
2023-02-15T11:32:59.834Z,9.23
2023-02-15T11:35:32.964Z,12.40
2023-02-15T11:38:09.437Z,8.70
2023-02-15T11:40:49.253Z,8.13
2023-02-15T11:43:26.072Z,5.35
2023-02-15T11:45:56.622Z,7.68
2023-02-15T11:48:24.173Z,8.27
2023-02-15T11:50:51.586Z,9.90
2023-02-15T11:53:26.992Z,11.68
2023-02-15T11:55:53.901Z,8.63
2023-02-15T11:58:42.766Z,6.90
2023-02-15T12:01:14.583Z,7.55
2023-02-15T12:03:45.821Z,6.65
2023-02-15T12:06:42.866Z,6.18
2023-02-15T12:09:30.882Z,6.07
2023-02-15T12:12:21.302Z,5.78
2023-02-15T12:14:58.864Z,6.28
2023-02-15T12:17:38.969Z,7.88
2023-02-15T12:20:18.843Z,11.43
2023-02-15T12:22:57.573Z,15.43
2023-02-15T12:25:28.069Z,106.25
2023-02-15T12:27:54.916Z,54.30
2023-02-15T12:30:31.277Z,25.92
2023-02-15T12:33:34.875Z,25.05
2023-02-15T12:36:20.153Z,28.80
2023-02-15T12:39:09.248Z,17.70
2023-02-15T12:41:39.212Z,12.57
2023-02-15T12:44:05.904Z,14.07
2023-02-15T12:46:37.879Z,15.40
2023-02-15T12:49:21.771Z,12.98
2023-02-15T12:51:48.715Z,13.60
2023-02-15T12:54:44.482Z,12.93
2023-02-15T12:57:26.734Z,17.52
2023-02-15T13:00:00.432Z,16.85
2023-02-15T13:02:29.906Z,15.93
2023-02-15T13:04:56.982Z,15.25
2023-02-15T13:07:25.801Z,48.92
2023-02-15T13:09:52.715Z,40.90
2023-02-15T13:12:22.791Z,34.45
2023-02-15T13:14:53.238Z,17.42
2023-02-15T13:17:30.237Z,15.77
2023-02-15T13:20:28.305Z,11.10
2023-02-15T13:23:00.930Z,16.08
2023-02-15T13:25:30.981Z,14.10
2023-02-15T13:28:02.856Z,12.25
2023-02-15T13:30:40.083Z,12.18
2023-02-15T13:33:11.934Z,16.85
2023-02-15T13:35:57.519Z,12.13
2023-02-15T13:38:33.574Z,15.07
2023-02-15T13:41:02.845Z,16.85
2023-02-15T13:43:52.529Z,13.38
2023-02-15T13:46:49.056Z,14.63
2023-02-15T13:49:35.649Z,13.98
2023-02-15T13:52:08.496Z,15.70
2023-02-15T13:54:44.655Z,14.52
2023-02-15T13:57:21.054Z,13.20
2023-02-15T14:00:25.881Z,12.40
2023-02-15T14:02:57.471Z,12.25
2023-02-15T14:05:52.289Z,11.50
2023-02-15T14:08:40.495Z,12.75
2023-02-15T14:11:10.179Z,10.15
2023-02-15T14:14:00.499Z,10.60
2023-02-15T14:17:05.478Z,10.90
2023-02-15T14:19:55.510Z,11.77
2023-02-15T14:22:42.282Z,8.82
2023-02-15T14:25:19.636Z,8.65
2023-02-15T14:28:04.269Z,8.48
2023-02-15T14:30:36.084Z,9.70
2023-02-15T14:33:12.471Z,10.18
2023-02-15T14:35:40.530Z,7.82
2023-02-15T14:38:37.524Z,8.07
2023-02-15T14:41:30.026Z,8.02
2023-02-15T14:44:09.015Z,7.60
2023-02-15T14:46:48.621Z,8.80
2023-02-15T14:49:20.100Z,9.07
2023-02-15T14:51:47.018Z,9.43
2023-02-15T14:54:21.436Z,10.50
2023-02-15T14:57:08.752Z,14.73
2023-02-15T14:59:59.652Z,13.02
2023-02-15T15:02:26.426Z,8.65
2023-02-15T15:04:53.247Z,9.80
2023-02-15T15:07:39.583Z,10.95
2023-02-15T15:10:28.338Z,10.52
2023-02-15T15:12:58.338Z,10.45
2023-02-15T15:15:29.605Z,7.65
2023-02-15T15:18:12.353Z,9.25
2023-02-15T15:20:43.174Z,8.25
2023-02-15T15:23:20.206Z,11.40
2023-02-15T15:25:57.112Z,9.55
2023-02-15T15:28:39.064Z,9.05
2023-02-15T15:31:32.371Z,6.60
2023-02-15T15:34:39.176Z,10.10
2023-02-15T15:38:21.143Z,8.60
2023-02-15T15:41:20.022Z,12.07
2023-02-15T15:44:14.317Z,8.05
2023-02-15T15:47:06.307Z,9.10
2023-02-15T15:49:38.581Z,8.20
2023-02-15T15:52:19.796Z,8.48
2023-02-15T15:54:50.274Z,7.18
2023-02-15T15:57:24.273Z,9.68
2023-02-15T15:59:51.872Z,7.82
2023-02-15T16:02:18.809Z,7.90
2023-02-15T16:04:52.086Z,7.30
2023-02-15T16:07:27.338Z,9.60
2023-02-15T16:10:08.923Z,7.88
2023-02-15T16:12:37.295Z,9.65
2023-02-15T16:15:16.955Z,8.48
2023-02-15T16:17:44.674Z,9.55
2023-02-15T16:20:31.910Z,9.35
2023-02-15T16:23:33.953Z,6.65
2023-02-15T16:26:15.753Z,8.88
2023-02-15T16:28:53.158Z,9.37
2023-02-15T16:31:24.365Z,8.20
2023-02-15T16:33:56.108Z,9.07
2023-02-15T16:36:27.062Z,8.30
2023-02-15T16:38:54.139Z,8.63
2023-02-15T16:41:25.927Z,7.90
2023-02-15T16:43:53.714Z,6.68
2023-02-15T16:46:30.454Z,10.57
2023-02-15T16:49:00.814Z,17.23
2023-02-15T16:51:34.621Z,19.52
2023-02-15T16:54:26.483Z,17.38
2023-02-15T16:56:53.313Z,16.10
2023-02-15T16:59:32.634Z,18.92
2023-02-15T17:01:59.611Z,15.07
2023-02-15T17:04:31.278Z,13.18
2023-02-15T17:07:18.342Z,16.38
2023-02-15T17:09:55.536Z,25.55
2023-02-15T17:12:49.667Z,18.42
2023-02-15T17:15:26.211Z,14.82
2023-02-15T17:17:54.050Z,12.55
2023-02-15T17:20:20.931Z,13.23
2023-02-15T17:22:49.890Z,11.80
2023-02-15T17:25:25.366Z,12.48
2023-02-15T17:27:56.205Z,11.57
2023-02-15T17:30:29.440Z,10.60
2023-02-15T17:32:59.179Z,11.60
2023-02-15T17:35:28.743Z,10.20
2023-02-15T17:38:21.224Z,8.48
2023-02-15T17:40:48.345Z,10.18
2023-02-15T17:43:15.150Z,11.88
2023-02-15T17:45:50.298Z,9.85
2023-02-15T17:48:21.957Z,10.98
2023-02-15T17:50:49.097Z,10.32
2023-02-15T17:53:19.213Z,9.82
2023-02-15T17:55:46.387Z,14.63
2023-02-15T17:58:14.947Z,9.93
2023-02-15T18:01:03.992Z,10.20
2023-02-15T18:04:05.394Z,10.65
2023-02-15T18:06:51.535Z,9.48
2023-02-15T18:09:38.080Z,9.50
2023-02-15T18:12:29.212Z,11.60
2023-02-15T18:14:57.024Z,10.80
2023-02-15T18:17:46.235Z,8.85
2023-02-15T18:20:20.475Z,13.88
2023-02-15T18:22:48.623Z,14.85
2023-02-15T18:25:17.253Z,9.63
2023-02-15T18:27:44.336Z,11.10
2023-02-15T18:30:15.915Z,10.65
2023-02-15T18:32:42.740Z,9.23
2023-02-15T18:35:16.296Z,11.45
2023-02-15T18:37:43.304Z,9.57
2023-02-15T18:40:15.908Z,8.65
2023-02-15T18:42:47.167Z,11.10
2023-02-15T18:45:25.172Z,9.65
2023-02-15T18:47:52.516Z,10.77
2023-02-15T18:50:20.658Z,14.90
2023-02-15T18:52:49.165Z,12.75
2023-02-15T18:55:20.517Z,10.23
2023-02-15T18:57:48.295Z,12.77
2023-02-15T19:00:22.810Z,13.27
2023-02-15T19:02:49.881Z,10.52
2023-02-15T19:05:18.241Z,12.90
2023-02-15T19:07:48.644Z,9.10
2023-02-15T19:10:26.538Z,10.50
2023-02-15T19:12:55.853Z,9.68
2023-02-15T19:15:27.425Z,9.70
2023-02-15T19:17:54.706Z,10.63
2023-02-15T19:20:45.508Z,9.57
2023-02-15T19:23:23.778Z,10.02
2023-02-15T19:25:52.313Z,9.63
2023-02-15T19:28:32.731Z,9.57
2023-02-15T19:30:59.716Z,10.07
2023-02-15T19:33:27.639Z,10.48
2023-02-15T19:35:57.330Z,9.95
2023-02-15T19:38:33.304Z,9.15
2023-02-15T19:41:15.540Z,8.73
2023-02-15T19:43:42.411Z,9.07
2023-02-15T19:46:15.314Z,10.45
2023-02-15T19:51:09.407Z,9.68
2023-02-15T19:53:38.742Z,9.63
2023-02-15T19:56:06.618Z,9.30
2023-02-15T19:58:36.638Z,9.50
2023-02-15T20:01:07.227Z,9.68
2023-02-15T20:03:35.487Z,14.55
2023-02-15T20:06:15.919Z,8.13
2023-02-15T20:08:44.025Z,9.05
2023-02-15T20:11:12.555Z,11.65
2023-02-15T20:13:42.518Z,8.77
2023-02-15T20:16:15.938Z,10.30
2023-02-15T20:18:46.737Z,10.68
2023-02-15T20:21:37.794Z,9.43
2023-02-15T20:24:22.492Z,8.25
2023-02-15T20:27:24.153Z,9.68
2023-02-15T20:30:05.411Z,8.70
2023-02-15T20:32:38.003Z,8.27
2023-02-15T20:35:09.124Z,10.00
2023-02-15T20:37:39.985Z,9.73
2023-02-15T20:40:17.549Z,8.75
2023-02-15T20:42:47.750Z,9.15
2023-02-15T20:50:20.886Z,7.28
2023-02-15T20:52:48.911Z,9.02
2023-02-15T20:55:20.651Z,7.50
2023-02-15T20:57:47.551Z,11.70
2023-02-15T21:00:29.808Z,7.55
2023-02-15T21:03:03.286Z,8.88
2023-02-15T21:05:36.230Z,7.53
2023-02-15T21:10:40.624Z,9.80
2023-02-15T21:13:11.525Z,8.45
2023-02-15T21:15:44.117Z,11.80
2023-02-15T21:18:15.684Z,7.72
2023-02-15T21:20:46.155Z,10.07
2023-02-15T21:23:14.238Z,8.68
2023-02-15T21:25:46.176Z,9.88
2023-02-15T21:28:22.124Z,11.60
2023-02-15T21:30:50.831Z,8.68
2023-02-15T21:33:20.544Z,7.85
2023-02-15T21:35:49.530Z,10.00
2023-02-15T21:38:18.208Z,9.85
2023-02-15T21:40:45.033Z,10.18
2023-02-15T21:43:36.909Z,10.75
2023-02-15T21:46:30.891Z,9.40
2023-02-15T21:49:02.341Z,7.55
2023-02-15T21:51:48.688Z,7.85
2023-02-15T21:54:19.734Z,9.55
2023-02-15T21:56:54.094Z,9.32
2023-02-15T21:59:21.748Z,7.60
2023-02-15T22:01:50.642Z,7.93
2023-02-15T22:04:25.378Z,8.48
2023-02-15T22:06:52.282Z,9.27
2023-02-15T22:09:23.604Z,8.65
2023-02-15T22:11:50.491Z,7.35
2023-02-15T22:14:35.548Z,7.18
2023-02-15T22:17:02.767Z,7.03
2023-02-15T22:19:30.069Z,8.30
2023-02-15T22:21:56.838Z,7.00
2023-02-15T22:24:23.582Z,7.65
2023-02-15T22:26:50.312Z,7.55
2023-02-15T22:29:17.420Z,8.45
